ARG1036 SLSU-SLLP
Flight info
| Callsign | ARG1036 |
|---|---|
| Flight time | 0h 42m |
| Altitude | 30000 |
| Route | TOLIP UW18 VAPAS |
| Aircraft | RJ85/M-SDFGIRWY/LB1 |
Departure
| Time | 2026-05-07 01:35 |
|---|---|
| Airport | Juana Azurduy de Padilla Air Force Base (SLSU) |
Arrival
| Time | 2026-05-07 02:17 |
|---|---|
| Airport | El Alto International Airport (SLLP) |
| Time | Latitude | Longitude | Altitude | Speed | Heading |
|---|---|---|---|---|---|
| 2026-05-07 01:05 | -19.01357 | -65.29333 | 9641 ft | 0 kts | 264° |
| 2026-05-07 01:32 | -19.01357 | -65.29335 | 9639 ft | 2 kts | 264° |
| 2026-05-07 01:32 | -19.01360 | -65.29367 | 9640 ft | 0 kts | 264° |
| 2026-05-07 01:33 | -19.01361 | -65.29377 | 9639 ft | 7 kts | 267° |
| 2026-05-07 01:33 | -19.01328 | -65.29519 | 9639 ft | 26 kts | 260° |
| 2026-05-07 01:33 | -19.01436 | -65.29667 | 9642 ft | 25 kts | 226° |
| 2026-05-07 01:33 | -19.01553 | -65.29795 | 9644 ft | 23 kts | 226° |
| 2026-05-07 01:34 | -19.01622 | -65.29879 | 9646 ft | 17 kts | 1° |
| 2026-05-07 01:34 | -19.01552 | -65.29809 | 9645 ft | 13 kts | 46° |
| 2026-05-07 01:34 | -19.01426 | -65.29662 | 9643 ft | 43 kts | 49° |
| 2026-05-07 01:34 | -19.01151 | -65.29364 | 9638 ft | 70 kts | 44° |
| 2026-05-07 01:35 | -19.00741 | -65.28936 | 9621 ft | 95 kts | 45° |
| 2026-05-07 01:35 | -19.00225 | -65.28376 | 9588 ft | 115 kts | 46° |
| 2026-05-07 01:35 | -18.99630 | -65.27736 | 9583 ft | 123 kts | 42° |
| 2026-05-07 01:35 | -18.99084 | -65.27234 | 11163 ft | 251 kts | 43° |
| 2026-05-07 01:36 | -18.98073 | -65.26062 | 12423 ft | 220 kts | 52° |
| 2026-05-07 01:36 | -18.96782 | -65.24995 | 12167 ft | 258 kts | 18° |
| 2026-05-07 01:36 | -18.95580 | -65.24791 | 12125 ft | 273 kts | 356° |
| 2026-05-07 01:36 | -18.93722 | -65.25390 | 12135 ft | 289 kts | 327° |
| 2026-05-07 01:37 | -18.92288 | -65.26920 | 12158 ft | 301 kts | 303° |
| 2026-05-07 01:37 | -18.91148 | -65.28802 | 12296 ft | 305 kts | 301° |
| 2026-05-07 01:37 | -18.90038 | -65.30725 | 12514 ft | 307 kts | 300° |
| 2026-05-07 01:37 | -18.88957 | -65.32676 | 12738 ft | 308 kts | 299° |
| 2026-05-07 01:38 | -18.87901 | -65.34614 | 13246 ft | 307 kts | 299° |
| 2026-05-07 01:38 | -18.86836 | -65.36586 | 14040 ft | 312 kts | 298° |
| 2026-05-07 01:38 | -18.85753 | -65.38595 | 14720 ft | 316 kts | 298° |
| 2026-05-07 01:38 | -18.84655 | -65.40626 | 15370 ft | 322 kts | 298° |
| 2026-05-07 01:39 | -18.83524 | -65.42712 | 15668 ft | 338 kts | 298° |
| 2026-05-07 01:39 | -18.82323 | -65.44924 | 15751 ft | 356 kts | 299° |
| 2026-05-07 01:39 | -18.81063 | -65.47242 | 15763 ft | 370 kts | 299° |
| 2026-05-07 01:39 | -18.79761 | -65.49637 | 15819 ft | 382 kts | 298° |
| 2026-05-07 01:40 | -18.78427 | -65.52087 | 16123 ft | 385 kts | 299° |
| 2026-05-07 01:40 | -18.77098 | -65.54525 | 16456 ft | 386 kts | 299° |
| 2026-05-07 01:40 | -18.75752 | -65.56987 | 16795 ft | 388 kts | 299° |
| 2026-05-07 01:40 | -18.74449 | -65.59457 | 17134 ft | 389 kts | 297° |
| 2026-05-07 01:41 | -18.73137 | -65.61959 | 17463 ft | 392 kts | 300° |
| 2026-05-07 01:41 | -18.71609 | -65.64360 | 17782 ft | 395 kts | 305° |
| 2026-05-07 01:41 | -18.70194 | -65.66278 | 18075 ft | 396 kts | 308° |
| 2026-05-07 01:41 | -18.68408 | -65.68513 | 18404 ft | 398 kts | 309° |
| 2026-05-07 01:42 | -18.66571 | -65.70707 | 18713 ft | 400 kts | 310° |
| 2026-05-07 01:42 | -18.64713 | -65.72899 | 19064 ft | 400 kts | 310° |
| 2026-05-07 01:42 | -18.62893 | -65.75074 | 19393 ft | 401 kts | 310° |
| 2026-05-07 01:42 | -18.61046 | -65.77296 | 19739 ft | 401 kts | 310° |
| 2026-05-07 01:43 | -18.59203 | -65.79524 | 20067 ft | 402 kts | 310° |
| 2026-05-07 01:43 | -18.57385 | -65.81729 | 20375 ft | 403 kts | 310° |
| 2026-05-07 01:43 | -18.55545 | -65.83971 | 20728 ft | 404 kts | 310° |
| 2026-05-07 01:43 | -18.53701 | -65.86215 | 21047 ft | 405 kts | 310° |
| 2026-05-07 01:44 | -18.51833 | -65.88448 | 21357 ft | 406 kts | 311° |
| 2026-05-07 01:44 | -18.50084 | -65.90544 | 21615 ft | 407 kts | 310° |
| 2026-05-07 01:44 | -18.48228 | -65.92803 | 21937 ft | 408 kts | 310° |
| 2026-05-07 01:44 | -18.46371 | -65.95043 | 22246 ft | 410 kts | 311° |
| 2026-05-07 01:45 | -18.44510 | -65.97271 | 22535 ft | 410 kts | 311° |
| 2026-05-07 01:45 | -18.42635 | -65.99515 | 22825 ft | 412 kts | 311° |
| 2026-05-07 01:45 | -18.40738 | -66.01821 | 23078 ft | 414 kts | 311° |
| 2026-05-07 01:45 | -18.38863 | -66.04091 | 23370 ft | 414 kts | 311° |
| 2026-05-07 01:46 | -18.36946 | -66.06402 | 23635 ft | 415 kts | 311° |
| 2026-05-07 01:46 | -18.35036 | -66.08703 | 23887 ft | 416 kts | 311° |
| 2026-05-07 01:46 | -18.33134 | -66.10996 | 24113 ft | 417 kts | 311° |
| 2026-05-07 01:46 | -18.31222 | -66.13296 | 24346 ft | 417 kts | 311° |
| 2026-05-07 01:47 | -18.29319 | -66.15583 | 24399 ft | 423 kts | 311° |
| 2026-05-07 01:47 | -18.27335 | -66.17965 | 24405 ft | 430 kts | 311° |
| 2026-05-07 01:47 | -18.25376 | -66.20314 | 24567 ft | 430 kts | 311° |
| 2026-05-07 01:47 | -18.23428 | -66.22649 | 25115 ft | 422 kts | 311° |
| 2026-05-07 01:48 | -18.21500 | -66.24995 | 25360 ft | 422 kts | 311° |
| 2026-05-07 01:48 | -18.19592 | -66.27292 | 25548 ft | 424 kts | 311° |
| 2026-05-07 01:48 | -18.17608 | -66.29665 | 25757 ft | 425 kts | 311° |
| 2026-05-07 01:48 | -18.15679 | -66.31972 | 25941 ft | 426 kts | 311° |
| 2026-05-07 01:49 | -18.13728 | -66.34333 | 26131 ft | 427 kts | 311° |
| 2026-05-07 01:49 | -18.11754 | -66.36696 | 26324 ft | 428 kts | 311° |
| 2026-05-07 01:49 | -18.09788 | -66.39054 | 26511 ft | 429 kts | 311° |
| 2026-05-07 01:49 | -18.07822 | -66.41424 | 26683 ft | 430 kts | 311° |
| 2026-05-07 01:50 | -18.05859 | -66.43765 | 26856 ft | 431 kts | 311° |
| 2026-05-07 01:50 | -18.03875 | -66.46159 | 27014 ft | 432 kts | 310° |
| 2026-05-07 01:50 | -18.01891 | -66.48554 | 27180 ft | 433 kts | 311° |
| 2026-05-07 01:50 | -17.99900 | -66.50934 | 27350 ft | 434 kts | 311° |
| 2026-05-07 01:51 | -17.97921 | -66.53283 | 27508 ft | 435 kts | 311° |
| 2026-05-07 01:51 | -17.95928 | -66.55681 | 27644 ft | 436 kts | 310° |
| 2026-05-07 01:51 | -17.94081 | -66.57904 | 27781 ft | 437 kts | 311° |
| 2026-05-07 01:51 | -17.92053 | -66.60309 | 27918 ft | 437 kts | 311° |
| 2026-05-07 01:52 | -17.90046 | -66.62715 | 28056 ft | 438 kts | 311° |
| 2026-05-07 01:52 | -17.88058 | -66.65108 | 28186 ft | 439 kts | 311° |
| 2026-05-07 01:52 | -17.86032 | -66.67511 | 28297 ft | 440 kts | 311° |
| 2026-05-07 01:52 | -17.84021 | -66.69918 | 28698 ft | 433 kts | 311° |
| 2026-05-07 01:53 | -17.82067 | -66.72258 | 29043 ft | 430 kts | 311° |
| 2026-05-07 01:53 | -17.80079 | -66.74610 | 29195 ft | 430 kts | 311° |
| 2026-05-07 01:53 | -17.78096 | -66.76989 | 29331 ft | 431 kts | 311° |
| 2026-05-07 01:53 | -17.76108 | -66.79361 | 29465 ft | 432 kts | 311° |
| 2026-05-07 01:54 | -17.74132 | -66.81702 | 29586 ft | 433 kts | 311° |
| 2026-05-07 01:54 | -17.72141 | -66.84091 | 29704 ft | 434 kts | 311° |
| 2026-05-07 01:54 | -17.70146 | -66.86474 | 29803 ft | 435 kts | 311° |
| 2026-05-07 01:54 | -17.68130 | -66.88855 | 29943 ft | 435 kts | 311° |
| 2026-05-07 01:55 | -17.66138 | -66.91241 | 30268 ft | 430 kts | 311° |
| 2026-05-07 01:55 | -17.64216 | -66.93538 | 30917 ft | 416 kts | 310° |
| 2026-05-07 01:55 | -17.62331 | -66.95784 | 31569 ft | 403 kts | 310° |
| 2026-05-07 01:55 | -17.60488 | -66.97953 | 32166 ft | 392 kts | 310° |
| 2026-05-07 01:56 | -17.58682 | -67.00090 | 32347 ft | 393 kts | 310° |
| 2026-05-07 01:56 | -17.55028 | -67.04458 | 32339 ft | 403 kts | 310° |
| 2026-05-07 01:57 | -17.51441 | -67.08749 | 32327 ft | 381 kts | 310° |
| 2026-05-07 01:57 | -17.47931 | -67.12905 | 31979 ft | 373 kts | 310° |
| 2026-05-07 01:57 | -17.46233 | -67.14903 | 31687 ft | 363 kts | 310° |
| 2026-05-07 01:58 | -17.44575 | -67.16845 | 31251 ft | 358 kts | 311° |
| 2026-05-07 01:58 | -17.42918 | -67.18793 | 30767 ft | 356 kts | 311° |
| 2026-05-07 01:58 | -17.41278 | -67.20736 | 30273 ft | 354 kts | 311° |
| 2026-05-07 01:58 | -17.39656 | -67.22672 | 29724 ft | 352 kts | 311° |
| 2026-05-07 01:59 | -17.38043 | -67.24601 | 29188 ft | 350 kts | 311° |
| 2026-05-07 01:59 | -17.36460 | -67.26489 | 28681 ft | 348 kts | 311° |
| 2026-05-07 01:59 | -17.34858 | -67.28378 | 28176 ft | 345 kts | 311° |
| 2026-05-07 01:59 | -17.33265 | -67.30269 | 27683 ft | 343 kts | 311° |
| 2026-05-07 02:00 | -17.31682 | -67.32147 | 26852 ft | 351 kts | 311° |
| 2026-05-07 02:00 | -17.30016 | -67.34108 | 25692 ft | 367 kts | 311° |
| 2026-05-07 02:00 | -17.28301 | -67.36144 | 24485 ft | 385 kts | 311° |
| 2026-05-07 02:00 | -17.26487 | -67.38282 | 23245 ft | 399 kts | 311° |
| 2026-05-07 02:01 | -17.24634 | -67.40457 | 22348 ft | 399 kts | 311° |
| 2026-05-07 02:01 | -17.22782 | -67.42629 | 21571 ft | 396 kts | 311° |
| 2026-05-07 02:01 | -17.20968 | -67.44749 | 20823 ft | 394 kts | 310° |
| 2026-05-07 02:01 | -17.19160 | -67.46879 | 20395 ft | 387 kts | 310° |
| 2026-05-07 02:02 | -17.17366 | -67.48997 | 20401 ft | 390 kts | 310° |
| 2026-05-07 02:02 | -17.15559 | -67.51136 | 20427 ft | 390 kts | 310° |
| 2026-05-07 02:02 | -17.13861 | -67.53308 | 20436 ft | 388 kts | 305° |
| 2026-05-07 02:02 | -17.12333 | -67.55638 | 20488 ft | 388 kts | 301° |
| 2026-05-07 02:03 | -17.10906 | -67.58032 | 20523 ft | 388 kts | 300° |
| 2026-05-07 02:03 | -17.09511 | -67.60455 | 20569 ft | 389 kts | 300° |
| 2026-05-07 02:03 | -17.08125 | -67.62898 | 20603 ft | 389 kts | 299° |
| 2026-05-07 02:03 | -17.06753 | -67.65336 | 20608 ft | 389 kts | 299° |
| 2026-05-07 02:04 | -17.05391 | -67.67761 | 20606 ft | 378 kts | 299° |
| 2026-05-07 02:04 | -17.04098 | -67.70040 | 20600 ft | 358 kts | 300° |
| 2026-05-07 02:04 | -17.02840 | -67.72205 | 20587 ft | 339 kts | 300° |
| 2026-05-07 02:04 | -17.01645 | -67.74268 | 20600 ft | 322 kts | 299° |
| 2026-05-07 02:05 | -17.00525 | -67.76230 | 20562 ft | 307 kts | 299° |
| 2026-05-07 02:05 | -16.99445 | -67.78103 | 20544 ft | 292 kts | 300° |
| 2026-05-07 02:05 | -16.98417 | -67.79873 | 20544 ft | 278 kts | 300° |
| 2026-05-07 02:05 | -16.97447 | -67.81548 | 20540 ft | 266 kts | 299° |
| 2026-05-07 02:06 | -16.96508 | -67.83171 | 20554 ft | 255 kts | 299° |
| 2026-05-07 02:06 | -16.95601 | -67.84735 | 20558 ft | 246 kts | 299° |
| 2026-05-07 02:06 | -16.94731 | -67.86234 | 20551 ft | 238 kts | 299° |
| 2026-05-07 02:06 | -16.93880 | -67.87694 | 20564 ft | 230 kts | 299° |
| 2026-05-07 02:07 | -16.93069 | -67.89082 | 20561 ft | 223 kts | 299° |
| 2026-05-07 02:07 | -16.91510 | -67.91770 | 20561 ft | 209 kts | 298° |
| 2026-05-07 02:07 | -16.90777 | -67.93056 | 20520 ft | 203 kts | 298° |
| 2026-05-07 02:08 | -16.90061 | -67.94309 | 20451 ft | 198 kts | 298° |
| 2026-05-07 02:08 | -16.89327 | -67.95596 | 20464 ft | 222 kts | 298° |
| 2026-05-07 02:08 | -16.88483 | -67.97058 | 20566 ft | 247 kts | 299° |
| 2026-05-07 02:08 | -16.87552 | -67.98676 | 20693 ft | 272 kts | 299° |
| 2026-05-07 02:09 | -16.86532 | -68.00444 | 20824 ft | 296 kts | 300° |
| 2026-05-07 02:09 | -16.85419 | -68.02346 | 20935 ft | 317 kts | 300° |
| 2026-05-07 02:09 | -16.84231 | -68.04375 | 21024 ft | 335 kts | 300° |
| 2026-05-07 02:09 | -16.83005 | -68.06472 | 21130 ft | 350 kts | 300° |
| 2026-05-07 02:10 | -16.81707 | -68.08695 | 21226 ft | 364 kts | 300° |
| 2026-05-07 02:10 | -16.80366 | -68.10994 | 21263 ft | 367 kts | 300° |
| 2026-05-07 02:10 | -16.79052 | -68.13247 | 20832 ft | 361 kts | 300° |
| 2026-05-07 02:10 | -16.77751 | -68.15473 | 20395 ft | 357 kts | 300° |
| 2026-05-07 02:11 | -16.76479 | -68.17686 | 19962 ft | 353 kts | 300° |
| 2026-05-07 02:11 | -16.75281 | -68.19776 | 19548 ft | 350 kts | 299° |
| 2026-05-07 02:11 | -16.74027 | -68.21948 | 19118 ft | 348 kts | 300° |
| 2026-05-07 02:11 | -16.72763 | -68.24101 | 18680 ft | 346 kts | 300° |
| 2026-05-07 02:12 | -16.71510 | -68.26250 | 18185 ft | 344 kts | 300° |
| 2026-05-07 02:12 | -16.70261 | -68.28394 | 17690 ft | 343 kts | 300° |
| 2026-05-07 02:12 | -16.69030 | -68.30478 | 17211 ft | 341 kts | 300° |
| 2026-05-07 02:12 | -16.67789 | -68.32576 | 16715 ft | 339 kts | 301° |
| 2026-05-07 02:13 | -16.66530 | -68.34656 | 16245 ft | 337 kts | 306° |
| 2026-05-07 02:13 | -16.64797 | -68.36225 | 15848 ft | 334 kts | 333° |
| 2026-05-07 02:13 | -16.62575 | -68.36802 | 15577 ft | 327 kts | 0° |
| 2026-05-07 02:13 | -16.60395 | -68.36306 | 15346 ft | 319 kts | 27° |
| 2026-05-07 02:14 | -16.58722 | -68.34909 | 15146 ft | 291 kts | 54° |
| 2026-05-07 02:14 | -16.57865 | -68.33204 | 14974 ft | 251 kts | 67° |
| 2026-05-07 02:14 | -16.57228 | -68.31613 | 14791 ft | 226 kts | 68° |
| 2026-05-07 02:14 | -16.56659 | -68.30150 | 14619 ft | 209 kts | 68° |
| 2026-05-07 02:15 | -16.56102 | -68.28810 | 14437 ft | 195 kts | 55° |
| 2026-05-07 02:15 | -16.55155 | -68.27880 | 14259 ft | 181 kts | 29° |
| 2026-05-07 02:15 | -16.53990 | -68.27242 | 14078 ft | 207 kts | 31° |
| 2026-05-07 02:15 | -16.52905 | -68.26420 | 14479 ft | 183 kts | 45° |
| 2026-05-07 02:16 | -16.52096 | -68.25361 | 14399 ft | 186 kts | 56° |
| 2026-05-07 02:16 | -16.51476 | -68.24189 | 14101 ft | 183 kts | 70° |
| 2026-05-07 02:16 | -16.51229 | -68.22907 | 13732 ft | 180 kts | 88° |
| 2026-05-07 02:16 | -16.51238 | -68.21622 | 13428 ft | 173 kts | 93° |
| 2026-05-07 02:17 | -16.51306 | -68.20395 | 13240 ft | 156 kts | 92° |
| 2026-05-07 02:17 | -16.51314 | -68.19383 | 13277 ft | 121 kts | 95° |
| 2026-05-07 02:17 | -16.51347 | -68.18782 | 13292 ft | 58 kts | 91° |
| 2026-05-07 02:17 | -16.51354 | -68.18466 | 13298 ft | 32 kts | 88° |
| 2026-05-07 02:18 | -16.51289 | -68.18239 | 13298 ft | 34 kts | 62° |
| 2026-05-07 02:18 | -16.51161 | -68.18063 | 13324 ft | 27 kts | 45° |
| 2026-05-07 02:18 | -16.51047 | -68.17943 | 13335 ft | 19 kts | 45° |
| 2026-05-07 02:18 | -16.50995 | -68.17837 | 13335 ft | 12 kts | 91° |
| 2026-05-07 02:19 | -16.51014 | -68.17721 | 13334 ft | 19 kts | 114° |
| 2026-05-07 02:19 | -16.51029 | -68.17628 | 13335 ft | 8 kts | 84° |
| 2026-05-07 02:19 | -16.51054 | -68.17526 | 13334 ft | 13 kts | 116° |
| 2026-05-07 02:19 | -16.51058 | -68.17519 | 13335 ft | 0 kts | 119° |